sensor_id;sensor_type;location;lat;lon;timestamp;pressure;altitude;pressure_sealevel;temperature;humidity
22311;BME280;11323;49.610;11.016;2023-03-03T00:02:49;98332.19;;;12.67;66.11
22311;BME280;11323;49.610;11.016;2023-03-03T00:07:50;98329.06;;;12.63;66.28
22311;BME280;11323;49.610;11.016;2023-03-03T00:12:51;98329.19;;;12.62;65.89
22311;BME280;11323;49.610;11.016;2023-03-03T00:17:52;98333.31;;;12.64;66.44
22311;BME280;11323;49.610;11.016;2023-03-03T00:22:52;98336.69;;;12.57;66.09
22311;BME280;11323;49.610;11.016;2023-03-03T00:27:52;98334.75;;;12.59;66.38
22311;BME280;11323;49.610;11.016;2023-03-03T00:32:54;98329.16;;;12.54;66.23
22311;BME280;11323;49.610;11.016;2023-03-03T00:38:01;98336.84;;;12.55;66.03
22311;BME280;11323;49.610;11.016;2023-03-03T00:43:16;98344.69;;;12.55;66.32
22311;BME280;11323;49.610;11.016;2023-03-03T00:48:31;98339.91;;;12.50;66.16
22311;BME280;11323;49.610;11.016;2023-03-03T00:53:39;98344.03;;;12.53;66.29
22311;BME280;11323;49.610;11.016;2023-03-03T00:58:42;98352.84;;;12.52;66.29
22311;BME280;11323;49.610;11.016;2023-03-03T01:03:48;98352.97;;;12.50;66.03
22311;BME280;11323;49.610;11.016;2023-03-03T01:08:49;98352.63;;;12.45;66.16
22311;BME280;11323;49.610;11.016;2023-03-03T01:13:51;98355.59;;;12.50;66.24
22311;BME280;11323;49.610;11.016;2023-03-03T01:18:52;98360.00;;;12.50;66.39
22311;BME280;11323;49.610;11.016;2023-03-03T01:23:52;98345.75;;;12.44;66.06
22311;BME280;11323;49.610;11.016;2023-03-03T01:28:52;98348.06;;;12.47;65.82
22311;BME280;11323;49.610;11.016;2023-03-03T01:33:54;98331.72;;;12.45;65.93
22311;BME280;11323;49.610;11.016;2023-03-03T01:38:54;98335.00;;;12.47;66.41
22311;BME280;11323;49.610;11.016;2023-03-03T01:43:55;98332.38;;;12.47;66.24
22311;BME280;11323;49.610;11.016;2023-03-03T01:49:06;98330.75;;;12.46;65.73
22311;BME280;11323;49.610;11.016;2023-03-03T01:54:17;98318.25;;;12.40;66.08
22311;BME280;11323;49.610;11.016;2023-03-03T01:59:26;98307.41;;;12.27;66.42
22311;BME280;11323;49.610;11.016;2023-03-03T02:04:30;98315.66;;;12.40;66.52
22311;BME280;11323;49.610;11.016;2023-03-03T02:09:51;98316.25;;;12.34;66.26
22311;BME280;11323;49.610;11.016;2023-03-03T02:14:54;98315.97;;;12.37;66.12
22311;BME280;11323;49.610;11.016;2023-03-03T02:20:06;98323.81;;;12.37;66.14
22311;BME280;11323;49.610;11.016;2023-03-03T02:25:14;98314.91;;;12.30;66.34
22311;BME280;11323;49.610;11.016;2023-03-03T02:30:20;98324.91;;;12.34;65.86
22311;BME280;11323;49.610;11.016;2023-03-03T02:35:31;98330.97;;;12.35;66.55
22311;BME280;11323;49.610;11.016;2023-03-03T02:40:32;98330.31;;;12.33;66.28
22311;BME280;11323;49.610;11.016;2023-03-03T02:45:44;98334.19;;;12.29;66.06
22311;BME280;11323;49.610;11.016;2023-03-03T02:50:44;98323.06;;;12.27;66.26
22311;BME280;11323;49.610;11.016;2023-03-03T02:55:45;98333.19;;;12.30;66.71
22311;BME280;11323;49.610;11.016;2023-03-03T03:00:45;98323.06;;;12.27;65.71
22311;BME280;11323;49.610;11.016;2023-03-03T03:05:49;98324.69;;;12.28;66.18
22311;BME280;11323;49.610;11.016;2023-03-03T03:10:53;98327.75;;;12.23;65.87
22311;BME280;11323;49.610;11.016;2023-03-03T03:15:58;98332.69;;;12.26;66.50
22311;BME280;11323;49.610;11.016;2023-03-03T03:21:09;98335.47;;;12.25;66.05
22311;BME280;11323;49.610;11.016;2023-03-03T03:26:12;98334.50;;;12.26;66.25
22311;BME280;11323;49.610;11.016;2023-03-03T03:31:12;98338.22;;;12.23;66.32
22311;BME280;11323;49.610;11.016;2023-03-03T03:36:16;98331.66;;;12.19;66.33
22311;BME280;11323;49.610;11.016;2023-03-03T03:41:17;98347.00;;;12.22;66.28
22311;BME280;11323;49.610;11.016;2023-03-03T03:46:17;98346.22;;;12.22;66.30
22311;BME280;11323;49.610;11.016;2023-03-03T03:51:18;98337.97;;;12.16;66.34
22311;BME280;11323;49.610;11.016;2023-03-03T03:56:19;98336.38;;;12.15;66.34
22311;BME280;11323;49.610;11.016;2023-03-03T04:01:22;98337.97;;;12.16;66.26
22311;BME280;11323;49.610;11.016;2023-03-03T04:06:24;98335.38;;;12.16;66.03
22311;BME280;11323;49.610;11.016;2023-03-03T04:11:26;98337.97;;;12.16;66.51
22311;BME280;11323;49.610;11.016;2023-03-03T04:16:27;98343.22;;;12.16;66.30
22311;BME280;11323;49.610;11.016;2023-03-03T04:21:28;98344.22;;;12.15;65.87
22311;BME280;11323;49.610;11.016;2023-03-03T04:26:31;98346.44;;;12.10;66.11
22311;BME280;11323;49.610;11.016;2023-03-03T04:31:34;98353.97;;;12.13;66.21
22311;BME280;11323;49.610;11.016;2023-03-03T04:36:36;98360.63;;;12.08;66.12
22311;BME280;11323;49.610;11.016;2023-03-03T04:41:37;98362.91;;;12.11;66.05
22311;BME280;11323;49.610;11.016;2023-03-03T04:46:38;98350.28;;;12.06;66.46
22311;BME280;11323;49.610;11.016;2023-03-03T04:51:39;98347.84;;;12.04;65.92
22311;BME280;11323;49.610;11.016;2023-03-03T04:56:43;98351.59;;;12.02;66.40
22311;BME280;11323;49.610;11.016;2023-03-03T05:01:44;98354.19;;;12.02;66.16
22311;BME280;11323;49.610;11.016;2023-03-03T05:06:47;98366.13;;;12.04;66.58
22311;BME280;11323;49.610;11.016;2023-03-03T05:11:47;98358.75;;;12.00;66.63
22311;BME280;11323;49.610;11.016;2023-03-03T05:16:48;98371.66;;;12.01;66.43
22311;BME280;11323;49.610;11.016;2023-03-03T05:21:48;98363.97;;;12.00;66.91
22311;BME280;11323;49.610;11.016;2023-03-03T05:26:48;98376.34;;;11.98;66.08
22311;BME280;11323;49.610;11.016;2023-03-03T05:31:49;98378.13;;;11.97;66.09
22311;BME280;11323;49.610;11.016;2023-03-03T05:36:49;98379.91;;;11.97;66.38
22311;BME280;11323;49.610;11.016;2023-03-03T05:41:50;98376.06;;;11.91;66.63
22311;BME280;11323;49.610;11.016;2023-03-03T05:46:50;98382.13;;;11.92;66.38
22311;BME280;11323;49.610;11.016;2023-03-03T05:51:51;98390.09;;;11.90;66.77
22311;BME280;11323;49.610;11.016;2023-03-03T05:56:52;98389.56;;;11.86;66.35
22311;BME280;11323;49.610;11.016;2023-03-03T06:01:53;98394.53;;;11.89;66.62
22311;BME280;11323;49.610;11.016;2023-03-03T06:06:53;98376.44;;;11.78;66.92
22311;BME280;11323;49.610;11.016;2023-03-03T06:11:53;98392.63;;;11.82;66.43
22311;BME280;11323;49.610;11.016;2023-03-03T06:16:54;98401.94;;;11.84;66.83
22311;BME280;11323;49.610;11.016;2023-03-03T06:21:56;98408.31;;;11.82;66.75
22311;BME280;11323;49.610;11.016;2023-03-03T06:26:58;98407.50;;;11.81;66.53
22311;BME280;11323;49.610;11.016;2023-03-03T06:31:58;98430.56;;;11.86;66.32
22311;BME280;11323;49.610;11.016;2023-03-03T06:36:59;98423.16;;;11.81;66.61
22311;BME280;11323;49.610;11.016;2023-03-03T06:41:59;98435.22;;;11.82;66.62
22311;BME280;11323;49.610;11.016;2023-03-03T06:47:00;98449.94;;;11.83;66.69
22311;BME280;11323;49.610;11.016;2023-03-03T06:52:09;98450.88;;;11.82;66.00
22311;BME280;11323;49.610;11.016;2023-03-03T06:57:31;98458.34;;;11.77;66.48
22311;BME280;11323;49.610;11.016;2023-03-03T07:02:32;98464.25;;;11.79;66.32
22311;BME280;11323;49.610;11.016;2023-03-03T07:07:32;98444.88;;;11.72;66.95
22311;BME280;11323;49.610;11.016;2023-03-03T07:12:34;98460.97;;;11.77;66.78
22311;BME280;11323;49.610;11.016;2023-03-03T07:17:36;98473.06;;;11.78;66.99
22311;BME280;11323;49.610;11.016;2023-03-03T07:22:48;98459.47;;;11.74;66.67
22311;BME280;11323;49.610;11.016;2023-03-03T07:27:49;98482.97;;;11.74;66.74
22311;BME280;11323;49.610;11.016;2023-03-03T07:32:54;98488.31;;;11.73;66.67
22311;BME280;11323;49.610;11.016;2023-03-03T07:37:55;98496.13;;;11.83;66.50
22311;BME280;11323;49.610;11.016;2023-03-03T07:42:56;98501.50;;;11.81;66.84
22311;BME280;11323;49.610;11.016;2023-03-03T07:48:25;98503.13;;;11.82;66.49
22311;BME280;11323;49.610;11.016;2023-03-03T07:53:30;98506.41;;;11.84;66.86
22311;BME280;11323;49.610;11.016;2023-03-03T07:58:39;98526.44;;;11.94;66.93
22311;BME280;11323;49.610;11.016;2023-03-03T08:03:40;98520.69;;;12.00;66.71
22311;BME280;11323;49.610;11.016;2023-03-03T08:08:41;98515.56;;;12.08;66.70
22311;BME280;11323;49.610;11.016;2023-03-03T08:13:44;98518.94;;;12.18;66.91
22311;BME280;11323;49.610;11.016;2023-03-03T08:18:46;98518.22;;;12.26;66.75
22311;BME280;11323;49.610;11.016;2023-03-03T08:23:47;98521.38;;;12.30;66.62
22311;BME280;11323;49.610;11.016;2023-03-03T08:28:53;98516.91;;;12.40;66.62
22311;BME280;11323;49.610;11.016;2023-03-03T08:33:53;98524.47;;;12.43;66.83
22311;BME280;11323;49.610;11.016;2023-03-03T08:38:54;98523.22;;;12.47;66.22
22311;BME280;11323;49.610;11.016;2023-03-03T08:43:56;98517.91;;;12.57;66.46
22311;BME280;11323;49.610;11.016;2023-03-03T08:48:56;98527.28;;;12.60;66.93
22311;BME280;11323;49.610;11.016;2023-03-03T08:53:57;98525.00;;;12.65;66.42
22311;BME280;11323;49.610;11.016;2023-03-03T08:58:57;98529.66;;;12.71;66.18
22311;BME280;11323;49.610;11.016;2023-03-03T09:03:58;98523.16;;;12.75;66.64
22311;BME280;11323;49.610;11.016;2023-03-03T09:08:58;98518.88;;;12.74;66.33
22311;BME280;11323;49.610;11.016;2023-03-03T09:14:13;98523.84;;;12.77;66.17
22311;BME280;11323;49.610;11.016;2023-03-03T09:19:18;98523.03;;;12.77;66.41
22311;BME280;11323;49.610;11.016;2023-03-03T09:24:29;98531.47;;;12.89;66.21
22311;BME280;11323;49.610;11.016;2023-03-03T09:29:35;98543.56;;;12.90;66.14
22311;BME280;11323;49.610;11.016;2023-03-03T09:34:39;98540.50;;;12.94;66.06
22311;BME280;11323;49.610;11.016;2023-03-03T09:39:47;98545.66;;;13.04;66.06
22311;BME280;11323;49.610;11.016;2023-03-03T09:50:25;98547.22;;;13.15;66.01
22311;BME280;11323;49.610;11.016;2023-03-03T09:55:49;98559.56;;;13.23;65.85
22311;BME280;11323;49.610;11.016;2023-03-03T10:01:01;98541.63;;;13.28;66.83
22311;BME280;11323;49.610;11.016;2023-03-03T10:22:03;98539.59;;;13.40;66.56
22311;BME280;11323;49.610;11.016;2023-03-03T10:32:42;98562.41;;;13.48;66.65
22311;BME280;11323;49.610;11.016;2023-03-03T10:43:04;98555.81;;;13.43;66.27
22311;BME280;11323;49.610;11.016;2023-03-03T10:48:24;98563.69;;;13.43;66.46
22311;BME280;11323;49.610;11.016;2023-03-03T11:09:43;98555.56;;;13.55;66.29
22311;BME280;11323;49.610;11.016;2023-03-03T11:20:21;98534.63;;;13.55;65.95
22311;BME280;11323;49.610;11.016;2023-03-03T11:25:31;98533.66;;;13.56;66.35
22311;BME280;11323;49.610;11.016;2023-03-03T11:40:56;98536.72;;;13.51;66.06
22311;BME280;11323;49.610;11.016;2023-03-03T11:46:02;98521.78;;;13.43;66.20
22311;BME280;11323;49.610;11.016;2023-03-03T11:51:13;98514.22;;;13.40;65.76
22311;BME280;11323;49.610;11.016;2023-03-03T11:56:41;98507.66;;;13.36;65.98
22311;BME280;11323;49.610;11.016;2023-03-03T12:01:52;98512.28;;;13.42;66.05
22311;BME280;11323;49.610;11.016;2023-03-03T12:07:03;98502.84;;;13.50;65.82
22311;BME280;11323;49.610;11.016;2023-03-03T12:12:24;98493.03;;;13.52;66.56
22311;BME280;11323;49.610;11.016;2023-03-03T12:23:02;98479.63;;;13.55;66.66
22311;BME280;11323;49.610;11.016;2023-03-03T12:28:21;98474.41;;;13.55;66.33
22311;BME280;11323;49.610;11.016;2023-03-03T12:49:33;98442.44;;;13.25;57.99
22311;BME280;11323;49.610;11.016;2023-03-03T12:54:39;98457.72;;;13.11;53.98
22311;BME280;11323;49.610;11.016;2023-03-03T13:00:02;98457.97;;;13.00;57.30
22311;BME280;11323;49.610;11.016;2023-03-03T13:05:39;98449.88;;;13.11;58.94
22311;BME280;11323;49.610;11.016;2023-03-03T13:17:03;98448.38;;;13.27;60.41
22311;BME280;11323;49.610;11.016;2023-03-03T13:27:47;98438.22;;;13.32;62.20
22311;BME280;11323;49.610;11.016;2023-03-03T13:33:13;98435.47;;;13.34;62.76
22311;BME280;11323;49.610;11.016;2023-03-03T13:38:22;98432.41;;;13.38;62.46
22311;BME280;11323;49.610;11.016;2023-03-03T13:43:29;98427.75;;;13.32;62.91
22311;BME280;11323;49.610;11.016;2023-03-03T13:48:48;98427.47;;;13.35;62.95
22311;BME280;11323;49.610;11.016;2023-03-03T14:04:13;98425.81;;;13.34;63.53
22311;BME280;11323;49.610;11.016;2023-03-03T14:09:33;98422.53;;;13.32;63.72
22311;BME280;11323;49.610;11.016;2023-03-03T14:14:51;98418.25;;;13.31;63.21
22311;BME280;11323;49.610;11.016;2023-03-03T14:20:01;98418.13;;;13.33;63.25
22311;BME280;11323;49.610;11.016;2023-03-03T14:25:05;98415.66;;;13.31;63.95
22311;BME280;11323;49.610;11.016;2023-03-03T14:30:42;98414.84;;;13.31;63.26
22311;BME280;11323;49.610;11.016;2023-03-03T14:46:34;98405.81;;;13.25;63.57
22311;BME280;11323;49.610;11.016;2023-03-03T14:51:42;98407.75;;;13.23;63.09
22311;BME280;11323;49.610;11.016;2023-03-03T14:57:37;98392.34;;;13.20;63.85
22311;BME280;11323;49.610;11.016;2023-03-03T15:07:30;98404.97;;;13.24;63.47
22311;BME280;11323;49.610;11.016;2023-03-03T15:12:36;98406.28;;;13.20;63.73
22311;BME280;11323;49.610;11.016;2023-03-03T15:17:39;98394.00;;;13.21;63.95
22311;BME280;11323;49.610;11.016;2023-03-03T15:33:22;98396.28;;;13.16;64.57
22311;BME280;11323;49.610;11.016;2023-03-03T15:38:50;98396.56;;;13.12;63.77
22311;BME280;11323;49.610;11.016;2023-03-03T15:55:01;98390.97;;;13.07;64.46
22311;BME280;11323;49.610;11.016;2023-03-03T16:05:33;98399.53;;;13.18;64.26
22311;BME280;11323;49.610;11.016;2023-03-03T16:11:11;98408.44;;;13.25;64.78
22311;BME280;11323;49.610;11.016;2023-03-03T16:32:18;98427.97;;;13.12;64.56
22311;BME280;11323;49.610;11.016;2023-03-03T16:37:35;98421.19;;;13.02;64.60
22311;BME280;11323;49.610;11.016;2023-03-03T16:42:39;98433.50;;;13.09;64.55
22311;BME280;11323;49.610;11.016;2023-03-03T17:04:30;98464.63;;;13.12;64.92
22311;BME280;11323;49.610;11.016;2023-03-03T17:09:53;98476.72;;;13.13;65.28
22311;BME280;11323;49.610;11.016;2023-03-03T17:20:36;98488.16;;;13.12;65.33
22311;BME280;11323;49.610;11.016;2023-03-03T17:36:31;98502.22;;;13.11;65.67
22311;BME280;11323;49.610;11.016;2023-03-03T17:41:55;98508.41;;;13.10;64.99
22311;BME280;11323;49.610;11.016;2023-03-03T17:47:10;98507.75;;;13.08;65.54
22311;BME280;11323;49.610;11.016;2023-03-03T17:57:50;98516.78;;;12.96;65.38
22311;BME280;11323;49.610;11.016;2023-03-03T18:03:26;98534.81;;;12.99;65.31
22311;BME280;11323;49.610;11.016;2023-03-03T18:25:09;98539.31;;;12.89;65.41
22311;BME280;11323;49.610;11.016;2023-03-03T18:40:33;98532.34;;;12.79;66.13
22311;BME280;11323;49.610;11.016;2023-03-03T18:50:43;98546.41;;;12.78;65.67
22311;BME280;11323;49.610;11.016;2023-03-03T18:55:53;98543.09;;;12.76;65.60
22311;BME280;11323;49.610;11.016;2023-03-03T19:00:59;98533.63;;;12.75;65.81
22311;BME280;11323;49.610;11.016;2023-03-03T19:06:01;98539.00;;;12.74;65.63
22311;BME280;11323;49.610;11.016;2023-03-03T19:11:02;98553.84;;;12.73;65.27
22311;BME280;11323;49.610;11.016;2023-03-03T19:16:10;98539.28;;;12.71;65.77
22311;BME280;11323;49.610;11.016;2023-03-03T19:21:34;98543.72;;;12.70;65.80
22311;BME280;11323;49.610;11.016;2023-03-03T19:27:13;98544.47;;;12.80;65.47
22311;BME280;11323;49.610;11.016;2023-03-03T19:32:30;98551.91;;;12.75;65.86
22311;BME280;11323;49.610;11.016;2023-03-03T19:43:01;98556.91;;;12.69;65.70
22311;BME280;11323;49.610;11.016;2023-03-03T19:53:38;98567.25;;;12.70;65.81
22311;BME280;11323;49.610;11.016;2023-03-03T20:14:37;98592.56;;;12.70;65.52
22311;BME280;11323;49.610;11.016;2023-03-03T20:25:24;98603.19;;;12.68;65.71
22311;BME280;11323;49.610;11.016;2023-03-03T20:41:20;98618.34;;;12.64;65.53
22311;BME280;11323;49.610;11.016;2023-03-03T20:46:48;98612.44;;;12.62;65.61
22311;BME280;11323;49.610;11.016;2023-03-03T20:52:21;98614.22;;;12.62;66.05
22311;BME280;11323;49.610;11.016;2023-03-03T21:12:54;98614.81;;;12.56;65.57
22311;BME280;11323;49.610;11.016;2023-03-03T21:17:55;98629.09;;;12.61;65.36
22311;BME280;11323;49.610;11.016;2023-03-03T21:22:58;98619.75;;;12.59;65.86
22311;BME280;11323;49.610;11.016;2023-03-03T21:38:45;98614.81;;;12.56;65.92
22311;BME280;11323;49.610;11.016;2023-03-03T21:43:48;98611.22;;;12.57;65.49
22311;BME280;11323;49.610;11.016;2023-03-03T21:48:50;98613.31;;;12.53;65.61
22311;BME280;11323;49.610;11.016;2023-03-03T21:53:51;98609.84;;;12.52;66.07
22311;BME280;11323;49.610;11.016;2023-03-03T21:58:51;98610.81;;;12.51;65.46
22311;BME280;11323;49.610;11.016;2023-03-03T22:03:51;98607.41;;;12.51;65.79
22311;BME280;11323;49.610;11.016;2023-03-03T22:08:52;98612.63;;;12.51;65.42
22311;BME280;11323;49.610;11.016;2023-03-03T22:13:52;98610.44;;;12.46;65.61
22311;BME280;11323;49.610;11.016;2023-03-03T22:18:52;98596.97;;;12.41;65.55
22311;BME280;11323;49.610;11.016;2023-03-03T22:23:53;98615.53;;;12.48;65.75
22311;BME280;11323;49.610;11.016;2023-03-03T22:28:53;98611.13;;;12.48;65.49
22311;BME280;11323;49.610;11.016;2023-03-03T22:33:53;98609.06;;;12.42;65.38
22311;BME280;11323;49.610;11.016;2023-03-03T22:38:54;98615.53;;;12.48;65.62
22311;BME280;11323;49.610;11.016;2023-03-03T22:43:54;98614.72;;;12.47;66.06
22311;BME280;11323;49.610;11.016;2023-03-03T22:48:55;98626.13;;;12.46;65.68
22311;BME280;11323;49.610;11.016;2023-03-03T22:53:55;98612.53;;;12.43;65.62
22311;BME280;11323;49.610;11.016;2023-03-03T22:58:55;98618.56;;;12.43;65.65
22311;BME280;11323;49.610;11.016;2023-03-03T23:03:56;98617.59;;;12.44;65.78
22311;BME280;11323;49.610;11.016;2023-03-03T23:08:56;98603.75;;;12.34;66.19
22311;BME280;11323;49.610;11.016;2023-03-03T23:13:56;98610.72;;;12.43;65.34
22311;BME280;11323;49.610;11.016;2023-03-03T23:18:57;98616.78;;;12.44;65.61
22311;BME280;11323;49.610;11.016;2023-03-03T23:23:57;98603.22;;;12.30;65.54
22311;BME280;11323;49.610;11.016;2023-03-03T23:28:57;98609.34;;;12.39;65.48
22311;BME280;11323;49.610;11.016;2023-03-03T23:33:58;98617.19;;;12.39;65.72
22311;BME280;11323;49.610;11.016;2023-03-03T23:38:58;98620.94;;;12.36;66.08
22311;BME280;11323;49.610;11.016;2023-03-03T23:43:59;98625.47;;;12.34;65.74
22311;BME280;11323;49.610;11.016;2023-03-03T23:48:59;98617.09;;;12.31;66.01
22311;BME280;11323;49.610;11.016;2023-03-03T23:54:01;98627.97;;;12.36;65.42
22311;BME280;11323;49.610;11.016;2023-03-03T23:59:01;98628.25;;;12.33;66.11
